sensor_id;sensor_type;location;lat;lon;timestamp;P1;durP1;ratioP1;P2;durP2;ratioP2
68484;SDS011;55472;50.060;21.960;2023-04-06T00:02:16;16.98;;;5.90;;
68484;SDS011;55472;50.060;21.960;2023-04-06T00:04:42;18.47;;;6.20;;
68484;SDS011;55472;50.060;21.960;2023-04-06T00:07:09;15.07;;;5.13;;
68484;SDS011;55472;50.060;21.960;2023-04-06T00:09:35;15.55;;;5.43;;
68484;SDS011;55472;50.060;21.960;2023-04-06T00:12:01;13.93;;;5.20;;
68484;SDS011;55472;50.060;21.960;2023-04-06T00:14:28;15.57;;;5.45;;
68484;SDS011;55472;50.060;21.960;2023-04-06T00:16:54;12.80;;;4.70;;
68484;SDS011;55472;50.060;21.960;2023-04-06T00:19:21;19.40;;;5.05;;
68484;SDS011;55472;50.060;21.960;2023-04-06T00:21:47;17.85;;;4.70;;
68484;SDS011;55472;50.060;21.960;2023-04-06T00:24:13;13.57;;;5.00;;
68484;SDS011;55472;50.060;21.960;2023-04-06T00:26:39;16.88;;;5.28;;
68484;SDS011;55472;50.060;21.960;2023-04-06T00:29:06;11.67;;;4.60;;
68484;SDS011;55472;50.060;21.960;2023-04-06T00:31:32;12.50;;;4.82;;
68484;SDS011;55472;50.060;21.960;2023-04-06T00:33:58;15.60;;;5.53;;
68484;SDS011;55472;50.060;21.960;2023-04-06T00:36:24;16.50;;;5.55;;
68484;SDS011;55472;50.060;21.960;2023-04-06T00:38:51;12.38;;;4.90;;
68484;SDS011;55472;50.060;21.960;2023-04-06T00:41:17;17.53;;;4.93;;
68484;SDS011;55472;50.060;21.960;2023-04-06T00:43:43;16.98;;;5.05;;
68484;SDS011;55472;50.060;21.960;2023-04-06T00:46:09;16.80;;;4.88;;
68484;SDS011;55472;50.060;21.960;2023-04-06T00:48:36;13.40;;;4.70;;
68484;SDS011;55472;50.060;21.960;2023-04-06T00:51:02;14.23;;;4.47;;
68484;SDS011;55472;50.060;21.960;2023-04-06T00:53:28;13.20;;;4.30;;
68484;SDS011;55472;50.060;21.960;2023-04-06T00:55:54;11.00;;;4.53;;
68484;SDS011;55472;50.060;21.960;2023-04-06T00:58:20;11.63;;;4.32;;
68484;SDS011;55472;50.060;21.960;2023-04-06T01:00:46;12.68;;;4.53;;
68484;SDS011;55472;50.060;21.960;2023-04-06T01:03:13;11.73;;;4.40;;
68484;SDS011;55472;50.060;21.960;2023-04-06T01:05:39;14.67;;;4.20;;
68484;SDS011;55472;50.060;21.960;2023-04-06T01:08:06;12.27;;;4.30;;
68484;SDS011;55472;50.060;21.960;2023-04-06T01:10:32;11.15;;;3.92;;
68484;SDS011;55472;50.060;21.960;2023-04-06T01:12:59;10.57;;;3.92;;
68484;SDS011;55472;50.060;21.960;2023-04-06T01:15:25;9.90;;;3.95;;
68484;SDS011;55472;50.060;21.960;2023-04-06T01:17:52;11.60;;;3.70;;
68484;SDS011;55472;50.060;21.960;2023-04-06T01:20:18;10.23;;;3.47;;
68484;SDS011;55472;50.060;21.960;2023-04-06T01:22:44;10.45;;;3.72;;
68484;SDS011;55472;50.060;21.960;2023-04-06T01:25:10;10.82;;;3.50;;
68484;SDS011;55472;50.060;21.960;2023-04-06T01:27:37;8.13;;;3.23;;
68484;SDS011;55472;50.060;21.960;2023-04-06T01:30:03;10.57;;;3.97;;
68484;SDS011;55472;50.060;21.960;2023-04-06T01:32:30;11.25;;;3.90;;
68484;SDS011;55472;50.060;21.960;2023-04-06T01:34:56;10.38;;;3.85;;
68484;SDS011;55472;50.060;21.960;2023-04-06T01:37:23;10.60;;;3.80;;
68484;SDS011;55472;50.060;21.960;2023-04-06T01:39:49;9.43;;;3.57;;
68484;SDS011;55472;50.060;21.960;2023-04-06T01:42:16;9.80;;;3.70;;
68484;SDS011;55472;50.060;21.960;2023-04-06T01:44:42;11.85;;;4.43;;
68484;SDS011;55472;50.060;21.960;2023-04-06T01:47:08;16.35;;;4.20;;
68484;SDS011;55472;50.060;21.960;2023-04-06T01:49:34;9.15;;;3.58;;
68484;SDS011;55472;50.060;21.960;2023-04-06T01:52:01;12.77;;;3.63;;
68484;SDS011;55472;50.060;21.960;2023-04-06T01:54:27;12.30;;;4.18;;
68484;SDS011;55472;50.060;21.960;2023-04-06T01:56:53;11.30;;;4.38;;
68484;SDS011;55472;50.060;21.960;2023-04-06T01:59:20;10.65;;;4.22;;
68484;SDS011;55472;50.060;21.960;2023-04-06T02:01:46;11.52;;;4.40;;
68484;SDS011;55472;50.060;21.960;2023-04-06T02:04:12;13.17;;;3.87;;
68484;SDS011;55472;50.060;21.960;2023-04-06T02:06:39;13.75;;;4.38;;
68484;SDS011;55472;50.060;21.960;2023-04-06T02:09:05;16.17;;;4.45;;
68484;SDS011;55472;50.060;21.960;2023-04-06T02:11:31;12.57;;;4.65;;
68484;SDS011;55472;50.060;21.960;2023-04-06T02:13:57;10.52;;;4.10;;
68484;SDS011;55472;50.060;21.960;2023-04-06T02:16:26;11.57;;;4.37;;
68484;SDS011;55472;50.060;21.960;2023-04-06T02:18:52;14.35;;;4.32;;
68484;SDS011;55472;50.060;21.960;2023-04-06T02:21:18;11.73;;;3.92;;
68484;SDS011;55472;50.060;21.960;2023-04-06T02:23:45;14.63;;;4.85;;
68484;SDS011;55472;50.060;21.960;2023-04-06T02:26:13;11.82;;;4.30;;
68484;SDS011;55472;50.060;21.960;2023-04-06T02:28:39;14.07;;;4.73;;
68484;SDS011;55472;50.060;21.960;2023-04-06T02:31:06;13.48;;;4.60;;
68484;SDS011;55472;50.060;21.960;2023-04-06T02:33:33;15.65;;;4.97;;
68484;SDS011;55472;50.060;21.960;2023-04-06T02:35:59;11.63;;;4.22;;
68484;SDS011;55472;50.060;21.960;2023-04-06T02:38:25;16.60;;;5.72;;
68484;SDS011;55472;50.060;21.960;2023-04-06T02:40:51;16.13;;;5.80;;
68484;SDS011;55472;50.060;21.960;2023-04-06T02:43:18;15.55;;;5.80;;
68484;SDS011;55472;50.060;21.960;2023-04-06T02:45:45;15.40;;;5.45;;
68484;SDS011;55472;50.060;21.960;2023-04-06T02:48:11;18.35;;;6.03;;
68484;SDS011;55472;50.060;21.960;2023-04-06T02:50:37;20.80;;;6.40;;
68484;SDS011;55472;50.060;21.960;2023-04-06T02:53:03;16.67;;;5.50;;
68484;SDS011;55472;50.060;21.960;2023-04-06T02:55:29;17.17;;;5.43;;
68484;SDS011;55472;50.060;21.960;2023-04-06T02:57:55;18.13;;;6.25;;
68484;SDS011;55472;50.060;21.960;2023-04-06T03:00:21;18.50;;;6.13;;
68484;SDS011;55472;50.060;21.960;2023-04-06T03:02:47;17.95;;;6.07;;
68484;SDS011;55472;50.060;21.960;2023-04-06T03:05:14;18.27;;;6.27;;
68484;SDS011;55472;50.060;21.960;2023-04-06T03:07:40;14.52;;;5.72;;
68484;SDS011;55472;50.060;21.960;2023-04-06T03:10:06;15.98;;;5.80;;
68484;SDS011;55472;50.060;21.960;2023-04-06T03:12:34;15.07;;;5.65;;
68484;SDS011;55472;50.060;21.960;2023-04-06T03:15:00;13.38;;;5.43;;
68484;SDS011;55472;50.060;21.960;2023-04-06T03:17:26;16.43;;;6.10;;
68484;SDS011;55472;50.060;21.960;2023-04-06T03:19:53;14.55;;;4.82;;
68484;SDS011;55472;50.060;21.960;2023-04-06T03:22:19;15.95;;;4.97;;
68484;SDS011;55472;50.060;21.960;2023-04-06T03:24:46;14.23;;;5.55;;
68484;SDS011;55472;50.060;21.960;2023-04-06T03:27:12;14.32;;;5.10;;
68484;SDS011;55472;50.060;21.960;2023-04-06T03:29:38;12.10;;;4.53;;
68484;SDS011;55472;50.060;21.960;2023-04-06T03:32:04;14.07;;;5.05;;
68484;SDS011;55472;50.060;21.960;2023-04-06T03:34:30;13.85;;;4.85;;
68484;SDS011;55472;50.060;21.960;2023-04-06T03:36:56;13.90;;;5.10;;
68484;SDS011;55472;50.060;21.960;2023-04-06T03:39:23;12.40;;;5.13;;
68484;SDS011;55472;50.060;21.960;2023-04-06T03:41:49;14.37;;;4.97;;
68484;SDS011;55472;50.060;21.960;2023-04-06T03:44:15;15.20;;;4.88;;
68484;SDS011;55472;50.060;21.960;2023-04-06T03:46:41;12.50;;;5.15;;
68484;SDS011;55472;50.060;21.960;2023-04-06T03:49:08;13.20;;;4.75;;
68484;SDS011;55472;50.060;21.960;2023-04-06T03:51:34;14.57;;;4.85;;
68484;SDS011;55472;50.060;21.960;2023-04-06T03:54:00;15.13;;;5.00;;
68484;SDS011;55472;50.060;21.960;2023-04-06T03:56:26;13.93;;;5.15;;
68484;SDS011;55472;50.060;21.960;2023-04-06T03:58:52;14.68;;;5.30;;
68484;SDS011;55472;50.060;21.960;2023-04-06T04:01:18;14.95;;;5.00;;
68484;SDS011;55472;50.060;21.960;2023-04-06T04:03:45;15.73;;;4.85;;
68484;SDS011;55472;50.060;21.960;2023-04-06T04:06:11;12.67;;;5.10;;
68484;SDS011;55472;50.060;21.960;2023-04-06T04:08:37;13.00;;;5.20;;
68484;SDS011;55472;50.060;21.960;2023-04-06T04:11:03;12.13;;;4.38;;
68484;SDS011;55472;50.060;21.960;2023-04-06T04:13:29;11.93;;;4.63;;
68484;SDS011;55472;50.060;21.960;2023-04-06T04:15:55;13.07;;;4.88;;
68484;SDS011;55472;50.060;21.960;2023-04-06T04:18:22;11.40;;;4.30;;
68484;SDS011;55472;50.060;21.960;2023-04-06T04:20:48;12.45;;;4.05;;
68484;SDS011;55472;50.060;21.960;2023-04-06T04:23:14;13.73;;;4.15;;
68484;SDS011;55472;50.060;21.960;2023-04-06T04:25:40;13.68;;;4.35;;
68484;SDS011;55472;50.060;21.960;2023-04-06T04:28:06;11.13;;;4.43;;
68484;SDS011;55472;50.060;21.960;2023-04-06T04:30:32;13.03;;;4.60;;
68484;SDS011;55472;50.060;21.960;2023-04-06T04:32:58;15.82;;;4.78;;
68484;SDS011;55472;50.060;21.960;2023-04-06T04:35:26;13.30;;;4.50;;
68484;SDS011;55472;50.060;21.960;2023-04-06T04:37:52;24.00;;;6.65;;
68484;SDS011;55472;50.060;21.960;2023-04-06T04:40:18;15.50;;;5.33;;
68484;SDS011;55472;50.060;21.960;2023-04-06T04:42:44;16.43;;;6.60;;
68484;SDS011;55472;50.060;21.960;2023-04-06T04:45:11;28.13;;;7.95;;
68484;SDS011;55472;50.060;21.960;2023-04-06T04:47:37;30.70;;;9.50;;
68484;SDS011;55472;50.060;21.960;2023-04-06T04:50:03;48.75;;;13.73;;
68484;SDS011;55472;50.060;21.960;2023-04-06T04:52:30;34.58;;;9.85;;
68484;SDS011;55472;50.060;21.960;2023-04-06T04:54:56;62.37;;;15.50;;
68484;SDS011;55472;50.060;21.960;2023-04-06T04:57:23;83.93;;;21.40;;
68484;SDS011;55472;50.060;21.960;2023-04-06T04:59:49;57.60;;;14.90;;
68484;SDS011;55472;50.060;21.960;2023-04-06T05:02:16;43.30;;;12.25;;
68484;SDS011;55472;50.060;21.960;2023-04-06T05:04:42;20.43;;;7.50;;
68484;SDS011;55472;50.060;21.960;2023-04-06T05:07:09;14.73;;;5.82;;
68484;SDS011;55472;50.060;21.960;2023-04-06T05:09:35;12.85;;;5.28;;
68484;SDS011;55472;50.060;21.960;2023-04-06T05:12:01;15.23;;;4.80;;
68484;SDS011;55472;50.060;21.960;2023-04-06T05:14:27;17.13;;;4.57;;
68484;SDS011;55472;50.060;21.960;2023-04-06T05:16:54;15.07;;;4.73;;
68484;SDS011;55472;50.060;21.960;2023-04-06T05:19:20;14.13;;;4.93;;
68484;SDS011;55472;50.060;21.960;2023-04-06T05:21:46;12.77;;;5.28;;
68484;SDS011;55472;50.060;21.960;2023-04-06T05:24:12;12.60;;;5.05;;
68484;SDS011;55472;50.060;21.960;2023-04-06T05:26:39;12.48;;;4.40;;
68484;SDS011;55472;50.060;21.960;2023-04-06T05:29:05;11.43;;;4.67;;
68484;SDS011;55472;50.060;21.960;2023-04-06T05:31:31;17.20;;;5.20;;
68484;SDS011;55472;50.060;21.960;2023-04-06T05:33:57;14.80;;;4.57;;
68484;SDS011;55472;50.060;21.960;2023-04-06T05:36:24;11.95;;;4.57;;
68484;SDS011;55472;50.060;21.960;2023-04-06T05:38:51;12.15;;;4.75;;
68484;SDS011;55472;50.060;21.960;2023-04-06T05:41:18;12.53;;;4.33;;
68484;SDS011;55472;50.060;21.960;2023-04-06T05:43:45;13.35;;;4.55;;
68484;SDS011;55472;50.060;21.960;2023-04-06T05:46:11;11.43;;;4.43;;
68484;SDS011;55472;50.060;21.960;2023-04-06T05:48:37;11.55;;;4.63;;
68484;SDS011;55472;50.060;21.960;2023-04-06T05:51:03;15.40;;;4.88;;
68484;SDS011;55472;50.060;21.960;2023-04-06T05:53:31;11.73;;;4.43;;
68484;SDS011;55472;50.060;21.960;2023-04-06T05:56:01;13.43;;;4.32;;
68484;SDS011;55472;50.060;21.960;2023-04-06T05:58:28;11.80;;;4.68;;
68484;SDS011;55472;50.060;21.960;2023-04-06T06:00:58;11.43;;;4.63;;
68484;SDS011;55472;50.060;21.960;2023-04-06T06:03:28;11.88;;;4.28;;
68484;SDS011;55472;50.060;21.960;2023-04-06T06:06:02;10.43;;;4.67;;
68484;SDS011;55472;50.060;21.960;2023-04-06T06:08:29;11.57;;;4.68;;
68484;SDS011;55472;50.060;21.960;2023-04-06T06:10:56;12.57;;;5.00;;
68484;SDS011;55472;50.060;21.960;2023-04-06T06:13:22;12.50;;;4.38;;
68484;SDS011;55472;50.060;21.960;2023-04-06T06:15:49;11.50;;;4.60;;
68484;SDS011;55472;50.060;21.960;2023-04-06T06:18:16;14.13;;;5.03;;
68484;SDS011;55472;50.060;21.960;2023-04-06T06:20:42;13.60;;;4.63;;
68484;SDS011;55472;50.060;21.960;2023-04-06T06:23:08;11.93;;;4.10;;
68484;SDS011;55472;50.060;21.960;2023-04-06T06:25:35;12.88;;;4.88;;
68484;SDS011;55472;50.060;21.960;2023-04-06T06:28:01;10.82;;;4.00;;
68484;SDS011;55472;50.060;21.960;2023-04-06T06:30:27;14.33;;;4.40;;
68484;SDS011;55472;50.060;21.960;2023-04-06T06:32:53;13.90;;;4.60;;
68484;SDS011;55472;50.060;21.960;2023-04-06T06:35:20;10.77;;;3.60;;
68484;SDS011;55472;50.060;21.960;2023-04-06T06:37:45;11.63;;;4.15;;
68484;SDS011;55472;50.060;21.960;2023-04-06T06:40:12;10.93;;;4.10;;
68484;SDS011;55472;50.060;21.960;2023-04-06T06:42:38;11.90;;;4.33;;
68484;SDS011;55472;50.060;21.960;2023-04-06T06:45:06;10.30;;;4.10;;
68484;SDS011;55472;50.060;21.960;2023-04-06T06:47:33;9.32;;;3.97;;
68484;SDS011;55472;50.060;21.960;2023-04-06T06:49:59;11.02;;;3.92;;
68484;SDS011;55472;50.060;21.960;2023-04-06T06:52:26;13.88;;;4.47;;
68484;SDS011;55472;50.060;21.960;2023-04-06T06:54:54;13.90;;;4.40;;
68484;SDS011;55472;50.060;21.960;2023-04-06T06:57:21;11.20;;;4.63;;
68484;SDS011;55472;50.060;21.960;2023-04-06T06:59:47;12.52;;;4.53;;
68484;SDS011;55472;50.060;21.960;2023-04-06T07:02:13;13.27;;;4.60;;
68484;SDS011;55472;50.060;21.960;2023-04-06T07:04:40;11.93;;;4.50;;
68484;SDS011;55472;50.060;21.960;2023-04-06T07:07:06;12.97;;;4.77;;
68484;SDS011;55472;50.060;21.960;2023-04-06T07:09:34;12.05;;;5.80;;
68484;SDS011;55472;50.060;21.960;2023-04-06T07:12:00;11.73;;;5.38;;
68484;SDS011;55472;50.060;21.960;2023-04-06T07:14:27;13.20;;;5.00;;
68484;SDS011;55472;50.060;21.960;2023-04-06T07:16:53;16.55;;;5.72;;
68484;SDS011;55472;50.060;21.960;2023-04-06T07:19:19;14.60;;;6.13;;
68484;SDS011;55472;50.060;21.960;2023-04-06T07:21:45;21.52;;;6.93;;
68484;SDS011;55472;50.060;21.960;2023-04-06T07:24:12;17.90;;;6.07;;
68484;SDS011;55472;50.060;21.960;2023-04-06T07:26:38;13.32;;;4.43;;
68484;SDS011;55472;50.060;21.960;2023-04-06T07:29:04;11.02;;;4.10;;
68484;SDS011;55472;50.060;21.960;2023-04-06T07:31:30;14.90;;;4.87;;
68484;SDS011;55472;50.060;21.960;2023-04-06T07:33:56;13.00;;;4.53;;
68484;SDS011;55472;50.060;21.960;2023-04-06T07:36:22;12.80;;;4.65;;
68484;SDS011;55472;50.060;21.960;2023-04-06T07:38:48;13.25;;;5.18;;
68484;SDS011;55472;50.060;21.960;2023-04-06T07:41:15;11.73;;;4.43;;
68484;SDS011;55472;50.060;21.960;2023-04-06T07:43:41;14.95;;;5.40;;
68484;SDS011;55472;50.060;21.960;2023-04-06T07:46:07;15.60;;;5.45;;
68484;SDS011;55472;50.060;21.960;2023-04-06T07:48:33;12.43;;;5.20;;
68484;SDS011;55472;50.060;21.960;2023-04-06T07:51:03;15.63;;;5.53;;
68484;SDS011;55472;50.060;21.960;2023-04-06T07:53:30;15.43;;;5.20;;
68484;SDS011;55472;50.060;21.960;2023-04-06T07:55:57;12.07;;;5.30;;
68484;SDS011;55472;50.060;21.960;2023-04-06T07:58:24;12.43;;;4.72;;
68484;SDS011;55472;50.060;21.960;2023-04-06T08:00:51;14.30;;;5.10;;
68484;SDS011;55472;50.060;21.960;2023-04-06T08:03:17;12.68;;;4.82;;
68484;SDS011;55472;50.060;21.960;2023-04-06T08:05:45;13.57;;;5.03;;
68484;SDS011;55472;50.060;21.960;2023-04-06T08:08:12;14.65;;;5.63;;
68484;SDS011;55472;50.060;21.960;2023-04-06T08:10:38;14.07;;;5.38;;
68484;SDS011;55472;50.060;21.960;2023-04-06T08:13:04;13.95;;;4.97;;
68484;SDS011;55472;50.060;21.960;2023-04-06T08:15:30;12.85;;;4.93;;
68484;SDS011;55472;50.060;21.960;2023-04-06T08:17:57;13.23;;;5.43;;
68484;SDS011;55472;50.060;21.960;2023-04-06T08:20:23;14.77;;;5.63;;
68484;SDS011;55472;50.060;21.960;2023-04-06T08:22:49;14.38;;;5.25;;
68484;SDS011;55472;50.060;21.960;2023-04-06T08:25:15;12.25;;;5.45;;
68484;SDS011;55472;50.060;21.960;2023-04-06T08:27:41;14.03;;;5.37;;
68484;SDS011;55472;50.060;21.960;2023-04-06T08:30:12;16.27;;;5.85;;
68484;SDS011;55472;50.060;21.960;2023-04-06T08:32:45;14.00;;;5.68;;
68484;SDS011;55472;50.060;21.960;2023-04-06T08:35:11;13.90;;;5.35;;
68484;SDS011;55472;50.060;21.960;2023-04-06T08:37:41;15.82;;;6.10;;
68484;SDS011;55472;50.060;21.960;2023-04-06T08:40:07;14.67;;;5.17;;
68484;SDS011;55472;50.060;21.960;2023-04-06T08:42:40;14.95;;;5.22;;
68484;SDS011;55472;50.060;21.960;2023-04-06T08:45:15;14.52;;;5.70;;
68484;SDS011;55472;50.060;21.960;2023-04-06T08:47:43;13.82;;;5.68;;
68484;SDS011;55472;50.060;21.960;2023-04-06T08:50:10;16.58;;;5.97;;
68484;SDS011;55472;50.060;21.960;2023-04-06T08:52:40;13.17;;;5.53;;
68484;SDS011;55472;50.060;21.960;2023-04-06T08:55:08;14.27;;;6.10;;
68484;SDS011;55472;50.060;21.960;2023-04-06T09:00:31;15.48;;;5.80;;
68484;SDS011;55472;50.060;21.960;2023-04-06T09:02:57;12.60;;;5.75;;
68484;SDS011;55472;50.060;21.960;2023-04-06T09:05:24;19.43;;;6.53;;
68484;SDS011;55472;50.060;21.960;2023-04-06T09:07:54;16.05;;;6.38;;
68484;SDS011;55472;50.060;21.960;2023-04-06T09:10:32;13.85;;;6.57;;
68484;SDS011;55472;50.060;21.960;2023-04-06T09:13:05;14.15;;;6.65;;
68484;SDS011;55472;50.060;21.960;2023-04-06T09:15:32;13.73;;;5.97;;
68484;SDS011;55472;50.060;21.960;2023-04-06T09:17:59;14.47;;;5.60;;
68484;SDS011;55472;50.060;21.960;2023-04-06T09:20:25;13.85;;;5.82;;
68484;SDS011;55472;50.060;21.960;2023-04-06T09:22:56;14.85;;;5.70;;
68484;SDS011;55472;50.060;21.960;2023-04-06T09:25:22;16.42;;;6.57;;
68484;SDS011;55472;50.060;21.960;2023-04-06T09:28:02;15.40;;;6.53;;
68484;SDS011;55472;50.060;21.960;2023-04-06T09:30:29;13.90;;;5.70;;
68484;SDS011;55472;50.060;21.960;2023-04-06T09:32:56;17.52;;;7.35;;
68484;SDS011;55472;50.060;21.960;2023-04-06T09:35:24;16.65;;;7.07;;
68484;SDS011;55472;50.060;21.960;2023-04-06T09:37:56;19.98;;;7.90;;
68484;SDS011;55472;50.060;21.960;2023-04-06T09:40:25;18.48;;;7.53;;
68484;SDS011;55472;50.060;21.960;2023-04-06T09:42:54;17.17;;;7.50;;
68484;SDS011;55472;50.060;21.960;2023-04-06T09:45:26;17.60;;;6.72;;
68484;SDS011;55472;50.060;21.960;2023-04-06T09:47:55;15.52;;;7.30;;
68484;SDS011;55472;50.060;21.960;2023-04-06T09:50:26;18.70;;;7.25;;
68484;SDS011;55472;50.060;21.960;2023-04-06T09:52:54;18.33;;;8.13;;
68484;SDS011;55472;50.060;21.960;2023-04-06T09:55:27;18.87;;;7.03;;
68484;SDS011;55472;50.060;21.960;2023-04-06T09:58:04;28.05;;;10.65;;
68484;SDS011;55472;50.060;21.960;2023-04-06T10:00:33;26.25;;;9.45;;
68484;SDS011;55472;50.060;21.960;2023-04-06T10:03:12;27.52;;;10.55;;
68484;SDS011;55472;50.060;21.960;2023-04-06T10:05:55;41.38;;;13.52;;
68484;SDS011;55472;50.060;21.960;2023-04-06T10:08:27;51.83;;;16.83;;
68484;SDS011;55472;50.060;21.960;2023-04-06T10:10:55;50.22;;;16.60;;
68484;SDS011;55472;50.060;21.960;2023-04-06T10:13:21;52.17;;;16.73;;
68484;SDS011;55472;50.060;21.960;2023-04-06T10:15:50;30.02;;;11.95;;
68484;SDS011;55472;50.060;21.960;2023-04-06T10:18:20;43.03;;;14.70;;
68484;SDS011;55472;50.060;21.960;2023-04-06T10:20:51;24.00;;;9.53;;
68484;SDS011;55472;50.060;21.960;2023-04-06T10:23:29;22.90;;;9.02;;
68484;SDS011;55472;50.060;21.960;2023-04-06T10:26:13;34.10;;;12.80;;
68484;SDS011;55472;50.060;21.960;2023-04-06T10:28:42;26.52;;;9.55;;
68484;SDS011;55472;50.060;21.960;2023-04-06T10:31:10;23.88;;;8.75;;
68484;SDS011;55472;50.060;21.960;2023-04-06T10:33:37;20.93;;;8.30;;
68484;SDS011;55472;50.060;21.960;2023-04-06T10:36:14;22.05;;;8.88;;
68484;SDS011;55472;50.060;21.960;2023-04-06T10:38:46;18.67;;;7.38;;
68484;SDS011;55472;50.060;21.960;2023-04-06T10:41:18;19.30;;;7.70;;
68484;SDS011;55472;50.060;21.960;2023-04-06T10:43:45;18.30;;;8.18;;
68484;SDS011;55472;50.060;21.960;2023-04-06T10:46:25;25.60;;;9.30;;
68484;SDS011;55472;50.060;21.960;2023-04-06T10:48:52;19.17;;;8.23;;
68484;SDS011;55472;50.060;21.960;2023-04-06T10:51:19;20.70;;;8.93;;
68484;SDS011;55472;50.060;21.960;2023-04-06T10:53:54;21.88;;;10.23;;
68484;SDS011;55472;50.060;21.960;2023-04-06T10:56:23;22.80;;;9.90;;
68484;SDS011;55472;50.060;21.960;2023-04-06T10:58:54;21.50;;;8.73;;
68484;SDS011;55472;50.060;21.960;2023-04-06T11:01:24;18.48;;;9.13;;
68484;SDS011;55472;50.060;21.960;2023-04-06T11:03:53;19.70;;;8.23;;
68484;SDS011;55472;50.060;21.960;2023-04-06T11:06:24;27.73;;;10.35;;
68484;SDS011;55472;50.060;21.960;2023-04-06T11:08:53;29.30;;;11.25;;
68484;SDS011;55472;50.060;21.960;2023-04-06T11:11:22;18.53;;;8.37;;
68484;SDS011;55472;50.060;21.960;2023-04-06T11:13:55;18.65;;;7.40;;
68484;SDS011;55472;50.060;21.960;2023-04-06T11:16:30;19.25;;;7.82;;
68484;SDS011;55472;50.060;21.960;2023-04-06T11:24:15;15.67;;;7.10;;
68484;SDS011;55472;50.060;21.960;2023-04-06T11:26:47;18.52;;;7.97;;
68484;SDS011;55472;50.060;21.960;2023-04-06T11:29:20;17.95;;;8.20;;
68484;SDS011;55472;50.060;21.960;2023-04-06T11:31:52;17.40;;;7.57;;
68484;SDS011;55472;50.060;21.960;2023-04-06T11:34:23;18.83;;;7.38;;
68484;SDS011;55472;50.060;21.960;2023-04-06T11:36:55;20.20;;;8.60;;
68484;SDS011;55472;50.060;21.960;2023-04-06T11:39:23;21.15;;;8.40;;
68484;SDS011;55472;50.060;21.960;2023-04-06T11:41:59;18.02;;;8.65;;
68484;SDS011;55472;50.060;21.960;2023-04-06T11:44:39;17.70;;;7.85;;
68484;SDS011;55472;50.060;21.960;2023-04-06T11:47:11;17.45;;;7.82;;
68484;SDS011;55472;50.060;21.960;2023-04-06T11:49:38;14.67;;;7.17;;
68484;SDS011;55472;50.060;21.960;2023-04-06T11:52:23;18.40;;;7.80;;
68484;SDS011;55472;50.060;21.960;2023-04-06T11:54:53;19.65;;;9.32;;
68484;SDS011;55472;50.060;21.960;2023-04-06T11:57:20;20.63;;;9.32;;
68484;SDS011;55472;50.060;21.960;2023-04-06T11:59:50;20.67;;;9.45;;
68484;SDS011;55472;50.060;21.960;2023-04-06T12:02:18;15.43;;;7.20;;
68484;SDS011;55472;50.060;21.960;2023-04-06T12:04:44;17.33;;;7.80;;
68484;SDS011;55472;50.060;21.960;2023-04-06T12:07:11;17.15;;;7.55;;
68484;SDS011;55472;50.060;21.960;2023-04-06T12:09:37;18.38;;;8.05;;
68484;SDS011;55472;50.060;21.960;2023-04-06T12:12:04;17.08;;;7.90;;
68484;SDS011;55472;50.060;21.960;2023-04-06T12:14:30;18.47;;;7.97;;
68484;SDS011;55472;50.060;21.960;2023-04-06T12:16:57;21.30;;;8.52;;
68484;SDS011;55472;50.060;21.960;2023-04-06T12:19:23;19.23;;;8.20;;
68484;SDS011;55472;50.060;21.960;2023-04-06T12:21:53;17.48;;;7.30;;
68484;SDS011;55472;50.060;21.960;2023-04-06T12:24:20;16.38;;;7.45;;
68484;SDS011;55472;50.060;21.960;2023-04-06T12:26:46;17.33;;;7.73;;
68484;SDS011;55472;50.060;21.960;2023-04-06T12:29:12;17.95;;;7.95;;
68484;SDS011;55472;50.060;21.960;2023-04-06T12:31:39;20.23;;;8.23;;
68484;SDS011;55472;50.060;21.960;2023-04-06T12:34:09;20.02;;;8.75;;
68484;SDS011;55472;50.060;21.960;2023-04-06T12:36:36;22.45;;;9.27;;
68484;SDS011;55472;50.060;21.960;2023-04-06T12:39:04;25.50;;;9.40;;
68484;SDS011;55472;50.060;21.960;2023-04-06T12:41:31;22.80;;;10.13;;
68484;SDS011;55472;50.060;21.960;2023-04-06T12:43:57;29.17;;;10.50;;
68484;SDS011;55472;50.060;21.960;2023-04-06T12:46:24;21.42;;;8.68;;
68484;SDS011;55472;50.060;21.960;2023-04-06T12:48:51;20.42;;;9.23;;
68484;SDS011;55472;50.060;21.960;2023-04-06T12:51:21;23.10;;;9.50;;
68484;SDS011;55472;50.060;21.960;2023-04-06T12:53:48;20.15;;;8.60;;
68484;SDS011;55472;50.060;21.960;2023-04-06T12:56:17;17.30;;;7.68;;
68484;SDS011;55472;50.060;21.960;2023-04-06T12:58:44;19.33;;;7.72;;
68484;SDS011;55472;50.060;21.960;2023-04-06T13:01:11;18.08;;;7.30;;
68484;SDS011;55472;50.060;21.960;2023-04-06T13:03:38;18.67;;;8.37;;
68484;SDS011;55472;50.060;21.960;2023-04-06T13:06:05;19.48;;;8.30;;
68484;SDS011;55472;50.060;21.960;2023-04-06T13:08:33;19.15;;;8.30;;
68484;SDS011;55472;50.060;21.960;2023-04-06T13:11:01;24.70;;;9.68;;
68484;SDS011;55472;50.060;21.960;2023-04-06T13:13:28;22.17;;;9.82;;
68484;SDS011;55472;50.060;21.960;2023-04-06T13:15:59;37.23;;;12.47;;
68484;SDS011;55472;50.060;21.960;2023-04-06T13:18:32;40.72;;;14.55;;
68484;SDS011;55472;50.060;21.960;2023-04-06T13:20:59;39.60;;;13.10;;
68484;SDS011;55472;50.060;21.960;2023-04-06T13:23:25;27.95;;;10.88;;
68484;SDS011;55472;50.060;21.960;2023-04-06T13:26:02;28.77;;;11.80;;
68484;SDS011;55472;50.060;21.960;2023-04-06T13:28:33;21.70;;;9.70;;
68484;SDS011;55472;50.060;21.960;2023-04-06T13:31:02;16.15;;;7.13;;
68484;SDS011;55472;50.060;21.960;2023-04-06T13:33:29;15.82;;;7.50;;
68484;SDS011;55472;50.060;21.960;2023-04-06T13:35:56;17.48;;;7.75;;
68484;SDS011;55472;50.060;21.960;2023-04-06T13:38:23;15.98;;;7.00;;
68484;SDS011;55472;50.060;21.960;2023-04-06T13:40:49;17.40;;;7.10;;
68484;SDS011;55472;50.060;21.960;2023-04-06T13:43:16;17.05;;;7.35;;
68484;SDS011;55472;50.060;21.960;2023-04-06T13:45:51;14.60;;;7.00;;
68484;SDS011;55472;50.060;21.960;2023-04-06T13:48:20;21.83;;;8.90;;
68484;SDS011;55472;50.060;21.960;2023-04-06T13:50:46;18.50;;;7.85;;
68484;SDS011;55472;50.060;21.960;2023-04-06T13:53:13;17.23;;;7.70;;
68484;SDS011;55472;50.060;21.960;2023-04-06T13:55:40;20.33;;;9.00;;
68484;SDS011;55472;50.060;21.960;2023-04-06T13:58:06;16.80;;;7.95;;
68484;SDS011;55472;50.060;21.960;2023-04-06T14:00:32;16.48;;;7.65;;
68484;SDS011;55472;50.060;21.960;2023-04-06T14:02:58;21.25;;;9.18;;
68484;SDS011;55472;50.060;21.960;2023-04-06T14:05:24;17.30;;;7.97;;
68484;SDS011;55472;50.060;21.960;2023-04-06T14:07:52;20.08;;;7.95;;
68484;SDS011;55472;50.060;21.960;2023-04-06T14:10:19;18.77;;;7.78;;
68484;SDS011;55472;50.060;21.960;2023-04-06T14:12:47;17.45;;;7.65;;
68484;SDS011;55472;50.060;21.960;2023-04-06T14:15:14;21.13;;;8.85;;
68484;SDS011;55472;50.060;21.960;2023-04-06T14:17:40;21.33;;;9.20;;
68484;SDS011;55472;50.060;21.960;2023-04-06T14:20:07;24.88;;;10.07;;
68484;SDS011;55472;50.060;21.960;2023-04-06T14:22:39;22.05;;;9.25;;
68484;SDS011;55472;50.060;21.960;2023-04-06T14:25:07;41.95;;;13.43;;
68484;SDS011;55472;50.060;21.960;2023-04-06T14:27:34;23.38;;;9.13;;
68484;SDS011;55472;50.060;21.960;2023-04-06T14:30:00;18.07;;;8.07;;
68484;SDS011;55472;50.060;21.960;2023-04-06T14:32:26;20.20;;;8.40;;